createdAt,value
2023-03-21T00:01:51.993Z,-0.04
2023-03-21T00:04:23.935Z,-0.08
2023-03-21T00:06:50.533Z,-0.12
2023-03-21T00:09:17.455Z,-0.15
2023-03-21T00:11:45.206Z,-0.16
2023-03-21T00:14:15.535Z,-0.18
2023-03-21T00:16:45.273Z,-0.19
2023-03-21T00:19:13.811Z,-0.22
2023-03-21T00:21:59.623Z,-0.23
2023-03-21T00:24:29.412Z,-0.24
2023-03-21T00:33:22.762Z,-0.21
2023-03-21T00:35:58.757Z,-0.21
2023-03-21T00:38:31.506Z,-0.19
2023-03-21T00:41:04.629Z,-0.19
2023-03-21T00:43:41.731Z,-0.19
2023-03-21T00:46:09.122Z,-0.23
2023-03-21T00:48:36.592Z,-0.28
2023-03-21T00:51:15.713Z,-0.28
2023-03-21T00:53:43.059Z,-0.31
2023-03-21T00:56:10.793Z,-0.35
2023-03-21T00:58:39.953Z,-0.40
2023-03-21T01:01:09.521Z,-0.43
2023-03-21T01:03:43.011Z,-0.45
2023-03-21T01:06:13.820Z,-0.48
2023-03-21T01:08:57.821Z,-0.48
2023-03-21T01:11:27.033Z,-0.46
2023-03-21T01:14:10.972Z,-0.48
2023-03-21T01:16:44.164Z,-0.52
2023-03-21T01:19:25.010Z,-0.55
2023-03-21T01:21:54.062Z,-0.57
2023-03-21T01:24:21.211Z,-0.58
2023-03-21T01:26:48.683Z,-0.60
2023-03-21T01:29:15.921Z,-0.60
2023-03-21T01:31:43.463Z,-0.59
2023-03-21T01:34:10.942Z,-0.59
2023-03-21T01:36:57.779Z,-0.61
2023-03-21T01:39:25.333Z,-0.65
2023-03-21T01:41:52.864Z,-0.68
2023-03-21T01:44:25.778Z,-0.68
2023-03-21T01:47:09.719Z,-0.67
2023-03-21T01:49:49.880Z,-0.66
2023-03-21T01:52:36.459Z,-0.63
2023-03-21T01:55:12.091Z,-0.63
2023-03-21T01:58:07.271Z,-0.63
2023-03-21T02:00:46.869Z,-0.62
2023-03-21T02:03:35.431Z,-0.57
2023-03-21T02:06:47.024Z,-0.52
2023-03-21T02:09:37.396Z,-0.49
2023-03-21T02:12:07.406Z,-0.47
2023-03-21T02:14:36.306Z,-0.47
2023-03-21T02:17:39.419Z,-0.48
2023-03-21T02:20:11.978Z,-0.45
2023-03-21T02:22:44.336Z,-0.42
2023-03-21T02:25:22.112Z,-0.37
2023-03-21T02:28:02.427Z,-0.37
2023-03-21T02:30:51.217Z,-0.33
2023-03-21T02:33:26.115Z,-0.25
2023-03-21T02:36:18.048Z,-0.22
2023-03-21T02:38:54.729Z,-0.21
2023-03-21T02:41:46.409Z,-0.18
2023-03-21T02:44:19.612Z,-0.12
2023-03-21T02:47:06.274Z,-0.07
2023-03-21T02:50:09.488Z,-0.03
2023-03-21T02:52:39.715Z,0.02
2023-03-21T02:55:15.710Z,0.03
2023-03-21T02:57:57.071Z,0.01
2023-03-21T03:00:27.429Z,0.01
2023-03-21T03:03:08.157Z,0.03
2023-03-21T03:05:38.078Z,0.04
2023-03-21T03:08:26.620Z,-0.00
2023-03-21T03:11:24.619Z,-0.03
2023-03-21T03:14:36.998Z,-0.01
2023-03-21T03:17:37.446Z,0.08
2023-03-21T03:20:27.299Z,0.13
2023-03-21T03:23:47.310Z,0.17
2023-03-21T03:26:39.955Z,0.19
2023-03-21T03:29:12.378Z,0.18
2023-03-21T03:31:44.517Z,0.18
2023-03-21T03:34:16.933Z,0.20
2023-03-21T03:36:47.913Z,0.24
2023-03-21T03:39:16.630Z,0.28
2023-03-21T03:42:18.288Z,0.35
2023-03-21T03:44:50.516Z,0.45
2023-03-21T03:47:41.945Z,0.50
2023-03-21T03:50:24.072Z,0.48
2023-03-21T03:52:57.388Z,0.49
2023-03-21T03:55:34.819Z,0.49
2023-03-21T03:58:21.734Z,0.55
2023-03-21T04:00:52.464Z,0.61
2023-03-21T04:03:24.478Z,0.67
2023-03-21T04:05:52.920Z,0.69
2023-03-21T04:08:20.071Z,0.69
2023-03-21T04:10:51.693Z,0.70
2023-03-21T04:13:19.380Z,0.74
2023-03-21T04:16:10.122Z,0.79
2023-03-21T04:18:39.379Z,0.84
2023-03-21T04:21:13.380Z,0.87
2023-03-21T04:23:41.585Z,0.90
2023-03-21T04:26:09.025Z,0.93
2023-03-21T04:28:39.964Z,0.99
2023-03-21T04:31:28.721Z,1.07
2023-03-21T04:34:09.913Z,1.15
2023-03-21T04:36:46.792Z,1.20
2023-03-21T04:39:15.459Z,1.20
2023-03-21T04:41:44.827Z,1.18
2023-03-21T04:44:13.117Z,1.21
2023-03-21T04:46:40.697Z,1.28
2023-03-21T04:49:08.166Z,1.35
2023-03-21T04:51:35.948Z,1.40
2023-03-21T04:54:06.065Z,1.44
2023-03-21T04:56:38.323Z,1.55
2023-03-21T04:59:13.651Z,1.67
2023-03-21T05:01:41.431Z,1.76
2023-03-21T05:04:09.596Z,1.82
2023-03-21T05:06:37.778Z,1.92
2023-03-21T05:09:08.707Z,1.96
2023-03-21T05:11:40.424Z,1.98
2023-03-21T05:14:14.166Z,2.00
2023-03-21T05:16:45.202Z,2.04
2023-03-21T05:19:14.097Z,2.10
2023-03-21T05:21:42.484Z,2.19
2023-03-21T05:24:22.018Z,2.30
2023-03-21T05:26:52.699Z,2.41
2023-03-21T05:29:22.733Z,2.51
2023-03-21T05:31:57.184Z,2.57
2023-03-21T05:34:24.324Z,2.63
2023-03-21T05:36:56.754Z,2.69
2023-03-21T05:39:25.994Z,2.69
2023-03-21T05:42:00.843Z,2.67
2023-03-21T05:44:27.995Z,2.69
2023-03-21T05:46:59.790Z,2.76
2023-03-21T05:49:32.523Z,2.83
2023-03-21T05:52:01.002Z,2.83
2023-03-21T05:54:27.931Z,2.85
2023-03-21T05:56:55.315Z,2.87
2023-03-21T05:59:43.855Z,2.93
2023-03-21T06:02:11.716Z,2.98
2023-03-21T06:04:39.492Z,3.01
2023-03-21T06:07:12.011Z,3.04
2023-03-21T06:09:56.137Z,3.08
2023-03-21T06:12:23.203Z,3.15
2023-03-21T06:15:16.007Z,3.27
2023-03-21T06:17:53.953Z,3.39
2023-03-21T06:20:21.007Z,3.45
2023-03-21T06:22:56.590Z,3.44
2023-03-21T06:25:24.119Z,3.40
2023-03-21T06:27:51.555Z,3.39
2023-03-21T06:30:19.220Z,3.39
2023-03-21T06:32:56.283Z,3.38
2023-03-21T06:35:23.561Z,3.40
2023-03-21T06:37:52.467Z,3.41
2023-03-21T06:40:19.852Z,3.47
2023-03-21T06:42:46.849Z,3.61
2023-03-21T06:45:14.023Z,3.76
2023-03-21T06:47:42.786Z,3.84
2023-03-21T06:50:19.772Z,3.86
2023-03-21T06:52:48.593Z,3.84
2023-03-21T06:55:16.446Z,3.85
2023-03-21T06:57:47.956Z,3.89
2023-03-21T07:00:15.534Z,3.95
2023-03-21T07:02:55.968Z,4.02
2023-03-21T07:05:26.581Z,4.09
2023-03-21T07:07:53.492Z,4.20
2023-03-21T07:10:25.637Z,4.27
2023-03-21T07:13:00.294Z,4.30
2023-03-21T07:15:38.315Z,4.35
2023-03-21T07:18:06.355Z,4.45
2023-03-21T07:20:34.982Z,4.62
2023-03-21T07:23:01.996Z,4.78
2023-03-21T07:25:30.252Z,4.93
2023-03-21T07:27:57.203Z,5.00
2023-03-21T07:30:24.175Z,5.05
2023-03-21T07:32:51.133Z,5.07
2023-03-21T07:35:18.347Z,5.01
2023-03-21T07:37:49.009Z,5.03
2023-03-21T07:40:16.995Z,5.16
2023-03-21T07:42:44.338Z,5.24
2023-03-21T07:45:21.435Z,5.31
2023-03-21T07:47:49.447Z,5.27
2023-03-21T07:50:16.521Z,5.17
2023-03-21T07:52:46.542Z,5.16
2023-03-21T07:55:13.875Z,5.14
2023-03-21T07:57:41.729Z,5.13
2023-03-21T08:00:09.260Z,5.16
2023-03-21T08:02:43.895Z,5.25
2023-03-21T08:05:11.941Z,5.32
2023-03-21T08:07:39.185Z,5.32
2023-03-21T08:10:06.852Z,5.30
2023-03-21T08:12:35.548Z,5.45
2023-03-21T08:15:03.591Z,5.61
2023-03-21T08:17:30.826Z,5.76
2023-03-21T08:19:58.050Z,5.88
2023-03-21T08:22:25.558Z,5.91
2023-03-21T08:24:52.831Z,5.92
2023-03-21T08:27:20.901Z,6.00
2023-03-21T08:29:47.797Z,6.16
2023-03-21T08:32:14.844Z,6.31
2023-03-21T08:34:42.840Z,6.41
2023-03-21T08:37:09.876Z,6.37
2023-03-21T08:39:37.019Z,6.34
2023-03-21T08:42:06.435Z,6.39
2023-03-21T08:44:34.145Z,6.58
2023-03-21T08:47:01.597Z,6.75
2023-03-21T08:49:28.537Z,6.64
2023-03-21T08:51:56.474Z,6.58
2023-03-21T08:54:23.456Z,6.58
2023-03-21T08:56:51.533Z,6.70
2023-03-21T08:59:18.752Z,6.74
2023-03-21T09:01:46.969Z,6.78
2023-03-21T09:04:14.004Z,6.76
2023-03-21T09:06:49.192Z,6.80
2023-03-21T09:09:16.660Z,6.93
2023-03-21T09:11:43.828Z,7.09
2023-03-21T09:14:12.532Z,7.28
2023-03-21T09:16:39.586Z,7.32
2023-03-21T09:19:08.787Z,7.38
2023-03-21T09:21:42.497Z,7.46
2023-03-21T09:24:09.875Z,7.49
2023-03-21T09:26:41.765Z,7.42
2023-03-21T09:29:09.055Z,7.39
2023-03-21T09:31:36.071Z,7.34
2023-03-21T09:34:04.101Z,7.32
2023-03-21T09:36:32.322Z,7.37
2023-03-21T09:39:04.078Z,7.49
2023-03-21T09:41:40.649Z,7.61
2023-03-21T09:44:26.360Z,7.66
2023-03-21T09:47:25.401Z,7.63
2023-03-21T09:50:07.502Z,7.54
2023-03-21T09:53:16.687Z,7.53
2023-03-21T09:55:44.647Z,7.59
2023-03-21T09:58:31.117Z,7.59
2023-03-21T10:01:07.594Z,7.49
2023-03-21T10:03:35.256Z,7.44
2023-03-21T10:06:11.387Z,7.41
2023-03-21T10:08:41.347Z,7.40
2023-03-21T10:11:21.695Z,7.36
2023-03-21T10:13:51.148Z,7.34
2023-03-21T10:16:38.008Z,7.30
2023-03-21T10:19:10.730Z,7.33
2023-03-21T10:21:59.837Z,7.35
2023-03-21T10:24:28.348Z,7.45
2023-03-21T10:26:55.428Z,7.55
2023-03-21T10:29:28.338Z,7.56
2023-03-21T10:31:55.906Z,7.58
2023-03-21T10:34:32.374Z,7.65
2023-03-21T10:37:00.621Z,7.72
2023-03-21T10:39:37.992Z,7.76
2023-03-21T10:42:05.975Z,7.76
2023-03-21T10:44:34.835Z,7.74
2023-03-21T10:47:09.348Z,7.82
2023-03-21T10:49:56.428Z,7.89
2023-03-21T10:55:32.337Z,7.98
2023-03-21T10:58:11.207Z,7.98
2023-03-21T11:00:39.608Z,7.97
2023-03-21T11:03:07.597Z,7.94
2023-03-21T11:05:40.508Z,7.98
2023-03-21T11:08:11.979Z,8.06
2023-03-21T11:10:54.233Z,8.10
2023-03-21T11:13:28.052Z,8.11
2023-03-21T11:16:04.511Z,8.13
2023-03-21T11:18:34.268Z,8.11
2023-03-21T11:21:06.531Z,8.08
2023-03-21T11:23:34.301Z,8.14
2023-03-21T11:34:04.732Z,8.67
2023-03-21T11:36:38.336Z,8.70
2023-03-21T11:39:10.992Z,8.72
2023-03-21T11:41:39.599Z,8.66
2023-03-21T11:44:09.748Z,8.62
2023-03-21T11:46:40.079Z,8.58
2023-03-21T11:49:08.445Z,8.50
2023-03-21T11:51:45.419Z,8.51
2023-03-21T11:54:17.396Z,8.53
2023-03-21T11:56:51.827Z,8.53
2023-03-21T11:59:27.806Z,8.55
2023-03-21T12:02:34.392Z,8.58
2023-03-21T12:05:21.129Z,8.54
2023-03-21T12:08:10.808Z,8.48
2023-03-21T12:10:46.560Z,8.51
2023-03-21T12:13:35.887Z,8.61
2023-03-21T12:16:21.915Z,8.68
2023-03-21T12:19:19.469Z,8.70
2023-03-21T12:22:30.756Z,8.69
2023-03-21T12:24:58.293Z,8.74
2023-03-21T12:27:43.602Z,8.74
2023-03-21T12:30:24.121Z,8.76
2023-03-21T12:32:57.588Z,8.71
2023-03-21T12:35:36.429Z,8.66
2023-03-21T12:38:19.909Z,8.66
2023-03-21T12:41:15.919Z,8.66
2023-03-21T12:43:42.510Z,8.69
2023-03-21T12:46:31.438Z,8.70
2023-03-21T12:49:17.214Z,8.74
2023-03-21T12:51:50.545Z,8.75
2023-03-21T12:54:27.820Z,8.79
2023-03-21T12:56:54.991Z,8.83
2023-03-21T12:59:30.908Z,8.84
2023-03-21T13:02:04.929Z,8.88
2023-03-21T13:04:42.091Z,8.95
2023-03-21T13:07:11.086Z,9.00
2023-03-21T13:09:41.071Z,9.00
2023-03-21T13:12:32.526Z,8.99
2023-03-21T13:15:24.677Z,8.95
2023-03-21T13:18:19.358Z,8.88
2023-03-21T13:20:52.960Z,8.91
2023-03-21T13:23:24.730Z,8.98
2023-03-21T13:25:54.016Z,9.04
2023-03-21T13:28:27.527Z,9.08
2023-03-21T13:30:53.986Z,9.17
2023-03-21T13:33:24.095Z,9.26
2023-03-21T13:36:05.669Z,9.35
2023-03-21T13:38:33.821Z,9.39
2023-03-21T13:49:10.129Z,9.30
2023-03-21T13:51:37.561Z,9.19
2023-03-21T13:54:06.921Z,9.11
2023-03-21T14:03:13.265Z,9.11
2023-03-21T14:05:40.946Z,9.08
2023-03-21T14:08:15.644Z,9.06
2023-03-21T14:10:46.751Z,9.06
2023-03-21T14:13:19.000Z,9.03
2023-03-21T14:15:56.422Z,8.97
2023-03-21T14:18:35.296Z,8.97
2023-03-21T14:21:23.807Z,9.00
2023-03-21T14:24:05.029Z,9.00
2023-03-21T14:26:33.520Z,8.94
2023-03-21T14:29:02.762Z,8.94
2023-03-21T14:31:31.442Z,8.95
2023-03-21T14:33:58.240Z,8.94
2023-03-21T14:36:27.196Z,8.95
2023-03-21T14:39:15.226Z,8.94
2023-03-21T14:41:49.454Z,8.87
2023-03-21T14:44:27.323Z,8.86
2023-03-21T14:47:03.927Z,8.87
2023-03-21T14:49:32.376Z,8.85
2023-03-21T14:52:06.828Z,8.82
2023-03-21T14:54:33.362Z,8.82
2023-03-21T14:57:02.170Z,8.81
2023-03-21T14:59:32.838Z,8.78
2023-03-21T15:02:02.193Z,8.81
2023-03-21T15:04:29.390Z,8.85
2023-03-21T15:06:59.003Z,8.86
2023-03-21T15:09:26.723Z,8.87
2023-03-21T15:11:57.962Z,8.85
2023-03-21T15:14:27.553Z,8.81
2023-03-21T15:16:54.673Z,8.79
2023-03-21T15:19:30.761Z,8.76
2023-03-21T15:22:07.504Z,8.74
2023-03-21T15:24:38.461Z,8.78
2023-03-21T15:27:16.796Z,8.80
2023-03-21T15:29:44.532Z,8.74
2023-03-21T15:32:17.189Z,8.72
2023-03-21T15:34:44.981Z,8.70
2023-03-21T15:37:22.294Z,8.69
2023-03-21T15:39:51.951Z,8.68
2023-03-21T15:42:34.302Z,8.68
2023-03-21T15:45:01.540Z,8.68
2023-03-21T15:47:53.887Z,8.65
2023-03-21T15:50:23.351Z,8.62
2023-03-21T15:52:50.925Z,8.55
2023-03-21T15:56:01.270Z,8.53
2023-03-21T15:58:40.148Z,8.48
2023-03-21T16:01:12.644Z,8.47
2023-03-21T16:10:51.436Z,8.55
2023-03-21T16:13:19.615Z,8.52
2023-03-21T16:15:47.230Z,8.50
2023-03-21T16:18:21.496Z,8.50
2023-03-21T16:20:50.385Z,8.52
2023-03-21T16:23:17.552Z,8.52
2023-03-21T16:25:56.101Z,8.50
2023-03-21T16:28:24.643Z,8.47
2023-03-21T16:30:51.960Z,8.43
2023-03-21T16:33:19.140Z,8.40
2023-03-21T16:36:02.932Z,8.41
2023-03-21T16:38:31.038Z,8.38
2023-03-21T16:41:01.153Z,8.39
2023-03-21T16:43:28.630Z,8.38
2023-03-21T16:45:58.157Z,8.37
2023-03-21T16:48:25.716Z,8.33
2023-03-21T16:50:54.076Z,8.31
2023-03-21T16:53:21.330Z,8.29
2023-03-21T16:55:48.977Z,8.27
2023-03-21T16:58:21.956Z,8.29
2023-03-21T17:00:49.112Z,8.32
2023-03-21T17:03:19.578Z,8.32
2023-03-21T17:05:49.255Z,8.31
2023-03-21T17:08:18.211Z,8.30
2023-03-21T17:10:45.734Z,8.30
2023-03-21T17:13:12.888Z,8.29
2023-03-21T17:15:41.765Z,8.26
2023-03-21T17:18:10.587Z,8.26
2023-03-21T17:20:40.600Z,8.26
2023-03-21T17:23:10.431Z,8.28
2023-03-21T17:25:37.514Z,8.27
2023-03-21T17:28:04.867Z,8.27
2023-03-21T17:30:34.981Z,8.27
2023-03-21T17:33:04.350Z,8.27
2023-03-21T17:35:31.703Z,8.26
2023-03-21T17:37:59.743Z,8.23
2023-03-21T17:40:29.120Z,8.22
2023-03-21T17:42:56.462Z,8.21
2023-03-21T17:45:23.862Z,8.22
2023-03-21T17:47:51.310Z,8.20
2023-03-21T17:50:23.434Z,8.18
2023-03-21T17:52:51.947Z,8.12
2023-03-21T17:55:24.324Z,8.04
2023-03-21T17:57:51.649Z,7.98
2023-03-21T18:00:23.866Z,7.92
2023-03-21T18:02:54.546Z,7.84
2023-03-21T18:05:22.644Z,7.78
2023-03-21T18:10:41.169Z,7.66
2023-03-21T18:13:08.749Z,7.66
2023-03-21T18:15:44.819Z,7.72
2023-03-21T18:18:14.198Z,7.76
2023-03-21T18:20:51.776Z,7.78
2023-03-21T18:23:19.933Z,7.80
2023-03-21T18:25:47.237Z,7.78
2023-03-21T18:28:25.667Z,7.78
2023-03-21T18:31:14.290Z,7.74
2023-03-21T18:33:41.066Z,7.71
2023-03-21T18:36:09.640Z,7.69
2023-03-21T18:38:37.301Z,7.71
2023-03-21T18:41:09.177Z,7.76
2023-03-21T18:46:26.135Z,7.79
2023-03-21T18:48:53.435Z,7.80
2023-03-21T18:51:20.471Z,7.79
2023-03-21T18:53:47.869Z,7.79
2023-03-21T18:56:57.776Z,7.79
2023-03-21T18:59:05.277Z,7.77
2023-03-21T19:01:33.223Z,7.74
2023-03-21T19:04:20.386Z,7.72
2023-03-21T19:06:48.423Z,7.72
2023-03-21T19:09:17.944Z,7.73
2023-03-21T19:11:45.884Z,7.75
2023-03-21T19:14:15.280Z,7.75
2023-03-21T19:17:12.123Z,7.74
2023-03-21T19:19:31.406Z,7.72
2023-03-21T19:21:59.949Z,7.69
2023-03-21T19:24:29.173Z,7.65
2023-03-21T19:26:58.913Z,7.62
2023-03-21T19:29:26.486Z,7.59
2023-03-21T19:31:54.010Z,7.55
2023-03-21T19:34:21.576Z,7.52
2023-03-21T19:36:52.024Z,7.50
2023-03-21T19:39:22.842Z,7.48
2023-03-21T19:41:51.246Z,7.46
2023-03-21T19:44:19.713Z,7.44
2023-03-21T19:46:48.691Z,7.42
2023-03-21T19:49:20.263Z,7.38
2023-03-21T19:51:49.246Z,7.32
2023-03-21T19:54:18.748Z,7.27
2023-03-21T19:56:48.059Z,7.27
2023-03-21T19:59:15.604Z,7.28
2023-03-21T20:01:46.052Z,7.30
2023-03-21T20:04:14.844Z,7.30
2023-03-21T20:06:44.087Z,7.28
2023-03-21T20:12:05.966Z,7.16
2023-03-21T20:14:33.366Z,7.11
2023-03-21T20:17:00.557Z,7.00
2023-03-21T20:19:29.373Z,6.92
2023-03-21T20:22:00.611Z,6.89
2023-03-21T20:24:36.694Z,6.87
2023-03-21T20:27:04.646Z,6.86
2023-03-21T20:32:21.518Z,6.83
2023-03-21T20:34:49.694Z,6.84
2023-03-21T20:47:06.709Z,6.70
2023-03-21T20:49:36.117Z,6.67
2023-03-21T20:54:55.145Z,6.69
2023-03-21T20:57:25.766Z,6.61
2023-03-21T20:59:57.712Z,6.53
2023-03-21T21:02:25.808Z,6.48
2023-03-21T21:05:23.713Z,6.45
2023-03-21T21:07:42.764Z,6.39
2023-03-21T21:10:11.521Z,6.34
2023-03-21T21:12:39.615Z,6.28
2023-03-21T21:15:08.439Z,6.22
2023-03-21T21:20:24.320Z,6.07
2023-03-21T21:22:59.503Z,6.01
2023-03-21T21:25:29.151Z,5.96
2023-03-21T21:27:56.463Z,5.92
2023-03-21T21:30:23.701Z,5.89
2023-03-21T21:32:51.665Z,5.87
2023-03-21T21:35:20.738Z,5.84
2023-03-21T21:37:48.992Z,5.81
2023-03-21T21:40:20.679Z,5.81
2023-03-21T21:42:52.037Z,5.81
2023-03-21T21:45:20.325Z,5.80
2023-03-21T21:47:47.447Z,5.78
2023-03-21T21:50:15.593Z,5.72
2023-03-21T21:52:44.019Z,5.66
2023-03-21T21:55:13.296Z,5.60
2023-03-21T21:57:41.017Z,5.55
2023-03-21T22:00:13.722Z,5.49
2023-03-21T22:02:41.564Z,5.50
2023-03-21T22:05:09.330Z,5.50
2023-03-21T22:07:41.223Z,5.51
2023-03-21T22:10:08.795Z,5.44
2023-03-21T22:12:36.207Z,5.39
2023-03-21T22:15:10.810Z,5.34
2023-03-21T22:17:38.868Z,5.26
2023-03-21T22:20:06.971Z,5.23
2023-03-21T22:22:38.073Z,5.22
2023-03-21T22:25:06.960Z,5.17
2023-03-21T22:27:34.286Z,5.10
2023-03-21T22:30:05.890Z,5.01
2023-03-21T22:32:35.161Z,4.94
2023-03-21T22:35:04.936Z,4.90
2023-03-21T22:37:33.042Z,4.89
2023-03-21T22:40:00.292Z,4.83
2023-03-21T22:42:27.421Z,4.76
2023-03-21T22:44:54.837Z,4.69
2023-03-21T22:47:21.779Z,4.62
2023-03-21T22:49:48.859Z,4.58
2023-03-21T22:52:16.057Z,4.58
2023-03-21T22:54:43.259Z,4.57
2023-03-21T22:57:10.110Z,4.53
2023-03-21T22:59:37.306Z,4.49
2023-03-21T23:02:04.292Z,4.45
2023-03-21T23:04:32.411Z,4.41
2023-03-21T23:06:59.345Z,4.37
2023-03-21T23:09:27.403Z,4.34
2023-03-21T23:14:06.760Z,4.19
2023-03-21T23:16:38.585Z,4.09
2023-03-21T23:19:05.997Z,4.06
2023-03-21T23:21:34.717Z,4.01
2023-03-21T23:24:02.148Z,3.96
2023-03-21T23:26:29.694Z,3.91
2023-03-21T23:28:59.011Z,3.85
2023-03-21T23:31:27.032Z,3.81
2023-03-21T23:33:54.665Z,3.75
2023-03-21T23:36:23.822Z,3.72
2023-03-21T23:38:51.082Z,3.69
2023-03-21T23:41:21.328Z,3.63
2023-03-21T23:43:49.201Z,3.61
2023-03-21T23:46:16.909Z,3.55
2023-03-21T23:48:45.510Z,3.52
2023-03-21T23:51:13.534Z,3.46
2023-03-21T23:53:45.664Z,3.46
2023-03-21T23:56:18.234Z,3.45
2023-03-21T23:58:47.182Z,3.42
